Time;durP1;ratioP1;P1;durP2;ratioP2;P2;SDS_P1;SDS_P2;PMS_P1;PMS_P2;Temp;Humidity;BMP_temperature;BMP_pressure;BME280_temperature;BME280_humidity;BME280_pressure;Samples;Min_cycle;Max_cycle;Signal;HPM_P1;HPM_P2
2024/02/29 00:02:11;;;;;;;34.78;19.77;;;3.90;99.90;;;;;;5079135;28;20230;-62
2024/02/29 00:04:38;;;;;;;38.25;21.70;;;3.90;99.90;;;;;;5079207;28;20205;-63
2024/02/29 00:07:05;;;;;;;34.03;20.85;;;4.00;99.90;;;;;;5082896;28;20208;-62
2024/02/29 00:09:32;;;;;;;34.33;19.63;;;4.00;99.90;;;;;;5083194;28;20205;-62
2024/02/29 00:11:59;;;;;;;29.30;18.00;;;4.10;99.90;;;;;;5084932;28;20225;-62
2024/02/29 00:14:26;;;;;;;33.10;19.67;;;4.10;99.90;;;;;;5083848;28;20211;-64
2024/02/29 00:16:57;;;;;;;30.80;18.55;;;4.10;99.90;;;;;;5085926;28;20205;-60
2024/02/29 00:19:24;;;;;;;38.97;19.52;;;4.10;99.90;;;;;;5085738;28;20213;-62
2024/02/29 00:21:50;;;;;;;25.52;17.20;;;4.10;99.90;;;;;;5087624;28;20217;-62
2024/02/29 00:24:17;;;;;;;30.25;18.05;;;4.10;99.90;;;;;;5086822;28;20208;-62
2024/02/29 00:26:44;;;;;;;35.00;18.85;;;4.10;99.90;;;;;;5088183;28;20202;-62
2024/02/29 00:29:10;;;;;;;30.85;18.15;;;4.00;99.90;;;;;;5090481;28;20225;-63
2024/02/29 00:31:44;;;;;;;30.65;17.77;;;4.00;99.90;;;;;;5089761;28;20233;-61
2024/02/29 00:34:12;;;;;;;32.80;18.63;;;4.00;99.90;;;;;;5087859;28;20598;-62
2024/02/29 00:36:39;;;;;;;32.17;17.52;;;3.90;99.90;;;;;;5083233;28;20202;-63
2024/02/29 00:39:06;;;;;;;32.25;18.65;;;3.90;99.90;;;;;;5079741;28;20231;-62
2024/02/29 00:41:33;;;;;;;35.67;18.38;;;3.90;99.90;;;;;;5079009;28;20716;-63
2024/02/29 00:44:00;;;;;;;36.08;19.33;;;3.90;99.90;;;;;;5079188;28;20555;-64
2024/02/29 00:46:27;;;;;;;34.20;16.85;;;3.80;99.90;;;;;;5078732;28;20201;-62
2024/02/29 00:48:53;;;;;;;30.60;19.48;;;3.80;99.90;;;;;;5079475;28;20197;-62
2024/02/29 00:51:21;;;;;;;31.17;19.75;;;3.80;99.90;;;;;;5078797;28;20714;-63
2024/02/29 00:53:48;;;;;;;34.58;17.95;;;3.80;99.90;;;;;;5079101;28;20704;-62
2024/02/29 00:56:15;;;;;;;34.05;17.33;;;3.70;99.90;;;;;;5079039;28;20212;-62
2024/02/29 00:58:42;;;;;;;29.90;17.90;;;3.70;99.90;;;;;;5078796;28;20217;-63
2024/02/29 01:01:08;;;;;;;35.72;19.48;;;3.70;99.90;;;;;;5078484;28;20208;-62
2024/02/29 01:03:35;;;;;;;31.52;17.67;;;3.70;99.90;;;;;;5078450;28;20560;-63
2024/02/29 01:06:04;;;;;;;27.33;17.25;;;3.60;99.90;;;;;;5078555;28;20201;-62
2024/02/29 01:08:32;;;;;;;28.98;17.67;;;3.60;99.90;;;;;;5077958;28;20640;-63
2024/02/29 01:10:59;;;;;;;29.05;16.58;;;3.60;99.90;;;;;;5077926;28;20201;-62
2024/02/29 01:13:26;;;;;;;32.53;17.90;;;3.50;99.90;;;;;;5089138;28;20264;-62
2024/02/29 01:15:53;;;;;;;32.92;18.38;;;3.50;99.90;;;;;;5089853;28;20285;-63
2024/02/29 01:18:19;;;;;;;32.13;19.50;;;3.50;99.90;;;;;;5082659;28;20256;-62
2024/02/29 01:20:46;;;;;;;28.58;17.55;;;3.50;99.90;;;;;;5081887;28;20238;-60
2024/02/29 01:23:13;;;;;;;30.58;18.55;;;3.50;99.90;;;;;;5080804;28;20293;-62
2024/02/29 01:25:41;;;;;;;31.30;17.75;;;3.50;99.90;;;;;;5081155;28;20201;-62
2024/02/29 01:28:08;;;;;;;30.23;18.67;;;3.40;99.90;;;;;;5078451;28;20201;-61
2024/02/29 01:30:35;;;;;;;30.92;16.60;;;3.40;99.90;;;;;;5079150;28;20197;-62
2024/02/29 01:33:01;;;;;;;27.77;18.10;;;3.40;99.90;;;;;;5078240;28;20217;-63
2024/02/29 01:35:28;;;;;;;32.80;18.05;;;3.40;99.90;;;;;;5078621;28;20205;-63
2024/02/29 01:37:55;;;;;;;28.58;15.70;;;3.40;99.90;;;;;;5078334;28;20221;-63
2024/02/29 01:40:22;;;;;;;29.38;17.38;;;3.40;99.90;;;;;;5078405;28;20204;-62
2024/02/29 01:42:50;;;;;;;25.52;16.30;;;3.40;99.90;;;;;;5082559;28;20233;-63
2024/02/29 01:45:17;;;;;;;30.02;16.98;;;3.40;99.90;;;;;;5086550;28;20227;-62
2024/02/29 01:47:44;;;;;;;24.00;15.70;;;3.30;99.90;;;;;;5085831;28;20540;-62
2024/02/29 01:50:16;;;;;;;31.38;17.85;;;3.30;99.90;;;;;;5083341;28;20201;-63
2024/02/29 01:52:45;;;;;;;29.27;16.13;;;3.30;99.90;;;;;;5084018;28;20271;-63
2024/02/29 01:55:12;;;;;;;29.70;16.33;;;3.30;99.90;;;;;;5080610;28;20208;-62
2024/02/29 01:57:40;;;;;;;29.65;16.35;;;3.20;99.90;;;;;;5078029;28;20232;-63
2024/02/29 02:00:10;;;;;;;24.35;15.52;;;3.20;99.90;;;;;;5077798;28;20304;-63
2024/02/29 02:02:38;;;;;;;25.95;16.17;;;3.20;99.90;;;;;;5076533;28;20229;-62
2024/02/29 02:05:05;;;;;;;29.33;15.48;;;3.20;99.90;;;;;;5076503;28;20204;-62
2024/02/29 02:07:33;;;;;;;27.35;16.92;;;3.20;99.90;;;;;;5076365;28;20205;-62
2024/02/29 02:10:00;;;;;;;29.85;16.25;;;3.20;99.90;;;;;;5076635;28;20197;-62
2024/02/29 02:12:27;;;;;;;26.38;15.38;;;3.20;99.90;;;;;;5076298;28;20225;-62
2024/02/29 02:14:54;;;;;;;28.50;16.10;;;3.20;99.90;;;;;;5077491;28;20212;-62
2024/02/29 02:17:22;;;;;;;28.35;15.98;;;3.20;99.90;;;;;;5077474;28;20208;-61
2024/02/29 02:19:50;;;;;;;26.98;16.45;;;3.20;99.90;;;;;;5076742;28;20232;-63
2024/02/29 02:22:18;;;;;;;22.17;13.45;;;3.20;99.90;;;;;;5076734;28;20221;-62
2024/02/29 02:24:45;;;;;;;24.58;16.20;;;3.20;99.90;;;;;;5077104;28;20693;-62
2024/02/29 02:27:11;;;;;;;24.90;14.85;;;3.20;99.90;;;;;;5076925;28;20785;-62
2024/02/29 02:29:38;;;;;;;28.85;16.25;;;3.10;99.90;;;;;;5076287;28;20201;-63
2024/02/29 02:32:06;;;;;;;25.48;15.43;;;3.10;99.90;;;;;;5076552;28;20741;-62
2024/02/29 02:34:33;;;;;;;23.35;15.57;;;3.10;99.90;;;;;;5076735;28;20542;-61
2024/02/29 02:37:00;;;;;;;25.63;16.65;;;3.10;99.90;;;;;;5075744;28;20233;-63
2024/02/29 02:39:28;;;;;;;25.98;15.23;;;3.10;99.90;;;;;;5075430;28;20220;-63
2024/02/29 02:41:54;;;;;;;23.20;16.02;;;3.10;99.90;;;;;;5076339;28;20239;-62
2024/02/29 02:44:21;;;;;;;24.60;14.75;;;3.10;99.90;;;;;;5082740;28;20524;-62
2024/02/29 02:46:48;;;;;;;24.98;14.93;;;3.10;99.90;;;;;;5091030;28;20212;-62
2024/02/29 02:49:15;;;;;;;25.25;15.75;;;3.10;99.90;;;;;;5090876;28;20208;-63
2024/02/29 02:51:42;;;;;;;25.05;13.93;;;3.10;99.90;;;;;;5089504;28;20231;-62
2024/02/29 02:54:09;;;;;;;24.77;14.60;;;3.10;99.90;;;;;;5091905;28;20208;-62
2024/02/29 02:56:37;;;;;;;23.90;14.70;;;3.10;99.90;;;;;;5091095;28;20205;-62
2024/02/29 02:59:03;;;;;;;21.35;14.05;;;3.10;99.90;;;;;;5091229;28;20228;-62
2024/02/29 03:01:30;;;;;;;25.42;14.63;;;3.10;99.90;;;;;;5103715;22;20267;-58
2024/02/29 03:03:57;;;;;;;21.40;14.18;;;3.10;99.90;;;;;;5054030;28;20221;-59
2024/02/29 03:06:24;;;;;;;26.90;16.08;;;3.10;99.90;;;;;;5053536;28;20289;-58
2024/02/29 03:08:51;;;;;;;24.73;14.82;;;3.10;99.90;;;;;;5053842;28;20224;-59
2024/02/29 03:11:18;;;;;;;19.77;13.20;;;3.00;99.90;;;;;;5053725;28;20225;-60
2024/02/29 03:13:46;;;;;;;22.30;13.85;;;3.00;99.90;;;;;;5053438;28;20209;-59
2024/02/29 03:16:13;;;;;;;21.73;13.63;;;3.00;99.90;;;;;;5053772;28;20198;-61
2024/02/29 03:18:39;;;;;;;22.38;14.75;;;3.00;99.90;;;;;;5053545;28;20222;-59
2024/02/29 03:21:06;;;;;;;23.73;14.35;;;3.00;99.90;;;;;;5053615;28;20256;-60
2024/02/29 03:23:33;;;;;;;23.65;14.38;;;3.00;99.90;;;;;;5053618;28;20206;-60
2024/02/29 03:25:59;;;;;;;29.55;13.85;;;3.00;99.90;;;;;;5054509;28;20213;-60
2024/02/29 03:28:26;;;;;;;24.30;13.18;;;3.00;99.90;;;;;;5055000;28;20209;-61
2024/02/29 03:30:55;;;;;;;25.73;14.10;;;2.90;99.90;;;;;;5054934;28;20690;-61
2024/02/29 03:33:21;;;;;;;25.15;16.02;;;2.90;99.90;;;;;;5054671;28;20205;-59
2024/02/29 03:35:48;;;;;;;21.70;14.02;;;2.90;99.90;;;;;;5054467;28;20205;-59
2024/02/29 03:38:15;;;;;;;27.20;15.57;;;2.90;99.90;;;;;;5053661;28;20202;-59
2024/02/29 03:40:42;;;;;;;21.90;13.20;;;2.90;99.90;;;;;;5052709;28;20220;-60
2024/02/29 03:43:09;;;;;;;24.67;14.80;;;2.90;99.90;;;;;;5052790;28;20233;-59
2024/02/29 03:45:36;;;;;;;23.58;14.05;;;2.90;99.90;;;;;;5052989;28;20233;-59
2024/02/29 03:48:04;;;;;;;20.38;13.00;;;2.90;99.90;;;;;;5052888;28;20210;-59
2024/02/29 03:50:31;;;;;;;22.48;13.05;;;2.90;99.90;;;;;;5052941;28;20206;-59
2024/02/29 03:52:58;;;;;;;21.05;13.05;;;2.80;99.90;;;;;;5052899;28;20313;-60
2024/02/29 03:55:24;;;;;;;23.00;14.82;;;2.80;99.90;;;;;;5052971;28;20198;-60
2024/02/29 03:57:51;;;;;;;23.20;13.82;;;2.80;99.90;;;;;;5055149;28;20209;-60
2024/02/29 04:00:18;;;;;;;20.42;13.05;;;2.80;99.90;;;;;;5058337;28;20264;-60
2024/02/29 04:02:45;;;;;;;21.67;12.98;;;2.80;99.90;;;;;;5052105;28;20240;-59
2024/02/29 04:05:13;;;;;;;22.83;13.70;;;2.80;99.90;;;;;;5052537;28;20574;-60
2024/02/29 04:07:41;;;;;;;22.00;12.60;;;2.70;99.90;;;;;;5052640;28;20208;-59
2024/02/29 04:13:19;;;;;;;23.88;12.90;;;2.70;99.90;;;;;;5090779;27;20544;-61
2024/02/29 04:15:45;;;;;;;21.48;13.68;;;2.70;99.90;;;;;;5090735;28;20208;-61
2024/02/29 04:18:13;;;;;;;20.05;13.95;;;2.70;99.90;;;;;;5090291;28;20204;-61
2024/02/29 04:20:39;;;;;;;28.52;13.90;;;2.70;99.90;;;;;;5090792;28;20310;-60
2024/02/29 04:23:06;;;;;;;23.42;15.20;;;2.70;99.90;;;;;;5090035;28;20221;-61
2024/02/29 04:25:33;;;;;;;22.92;13.48;;;2.70;99.90;;;;;;5091408;28;20572;-60
2024/02/29 04:27:59;;;;;;;22.60;12.60;;;2.70;99.90;;;;;;5090848;28;20299;-59
2024/02/29 04:30:28;;;;;;;21.63;13.50;;;2.70;99.90;;;;;;5091405;28;20557;-60
2024/02/29 04:32:54;;;;;;;20.70;12.18;;;2.80;99.90;;;;;;5090424;28;20251;-59
2024/02/29 04:35:21;;;;;;;20.83;12.80;;;2.80;99.90;;;;;;5090445;28;20658;-61
2024/02/29 04:37:48;;;;;;;23.83;13.55;;;2.80;99.90;;;;;;5090241;28;20207;-59
2024/02/29 04:40:15;;;;;;;21.08;12.55;;;2.80;99.90;;;;;;5090490;28;20208;-61
2024/02/29 04:42:42;;;;;;;18.48;12.60;;;2.80;99.90;;;;;;5090538;28;20228;-61
2024/02/29 04:45:09;;;;;;;22.23;13.60;;;2.80;99.90;;;;;;5092802;28;20200;-60
2024/02/29 04:47:37;;;;;;;21.88;14.20;;;2.80;99.90;;;;;;5091206;28;20212;-60
2024/02/29 04:50:05;;;;;;;21.70;13.50;;;2.90;99.90;;;;;;5090268;28;20294;-60
2024/02/29 04:52:32;;;;;;;20.08;13.80;;;2.90;99.90;;;;;;5089710;28;20751;-60
2024/02/29 04:54:58;;;;;;;20.98;13.80;;;2.90;99.90;;;;;;5090325;28;20212;-60
2024/02/29 04:57:25;;;;;;;19.70;12.93;;;2.90;99.90;;;;;;5090290;28;20201;-60
2024/02/29 04:59:52;;;;;;;23.35;13.95;;;2.90;99.90;;;;;;5089777;28;20250;-61
2024/02/29 05:02:19;;;;;;;19.65;12.40;;;2.90;99.90;;;;;;5090444;28;20216;-61
2024/02/29 05:04:47;;;;;;;21.15;12.88;;;2.90;99.90;;;;;;5090683;28;20204;-60
2024/02/29 05:07:14;;;;;;;20.60;13.00;;;2.90;99.90;;;;;;5089933;28;20200;-61
2024/02/29 05:09:41;;;;;;;21.00;13.95;;;2.90;99.90;;;;;;5089919;28;20201;-62
2024/02/29 05:12:08;;;;;;;23.63;15.02;;;2.90;99.90;;;;;;5091276;28;20232;-61
2024/02/29 05:14:35;;;;;;;17.88;12.57;;;2.80;99.90;;;;;;5089860;28;20693;-60
2024/02/29 05:17:02;;;;;;;25.35;14.88;;;2.80;99.90;;;;;;5089729;28;20549;-60
2024/02/29 05:19:28;;;;;;;21.60;14.13;;;2.80;99.90;;;;;;5089427;28;20205;-61
2024/02/29 05:21:57;;;;;;;21.42;13.90;;;2.80;99.90;;;;;;5089143;28;20216;-61
2024/02/29 05:24:24;;;;;;;23.67;14.35;;;2.70;99.90;;;;;;5076889;28;20221;-61
2024/02/29 05:26:51;;;;;;;20.15;13.43;;;2.70;99.90;;;;;;5083248;28;20205;-61
2024/02/29 05:29:17;;;;;;;23.00;14.25;;;2.70;99.90;;;;;;5085647;28;20221;-61
2024/02/29 05:31:50;;;;;;;21.15;12.63;;;2.70;99.90;;;;;;5078708;28;20228;-61
2024/02/29 05:34:17;;;;;;;23.25;12.85;;;2.70;99.90;;;;;;5076098;28;20639;-60
2024/02/29 05:36:44;;;;;;;20.15;12.93;;;2.70;99.90;;;;;;5076213;28;20201;-61
2024/02/29 05:39:12;;;;;;;20.10;14.00;;;2.70;99.90;;;;;;5075522;28;20685;-60
2024/02/29 05:41:39;;;;;;;23.67;13.63;;;2.70;99.90;;;;;;5076175;28;20217;-60
2024/02/29 05:44:06;;;;;;;18.15;12.60;;;2.70;99.90;;;;;;5076235;28;20247;-60
2024/02/29 05:46:33;;;;;;;24.50;12.93;;;2.70;99.90;;;;;;5075516;28;20201;-61
2024/02/29 05:48:59;;;;;;;20.98;13.00;;;2.80;99.90;;;;;;5075909;28;20215;-60
2024/02/29 05:51:26;;;;;;;20.33;13.02;;;2.80;99.90;;;;;;5075491;28;20556;-59
2024/02/29 05:53:54;;;;;;;22.83;14.05;;;2.80;99.90;;;;;;5077338;28;20197;-60
2024/02/29 05:56:22;;;;;;;21.08;13.05;;;2.80;99.90;;;;;;5084198;28;20215;-60
2024/02/29 05:58:49;;;;;;;20.77;12.70;;;2.90;99.90;;;;;;5076623;28;20697;-61
2024/02/29 06:01:16;;;;;;;17.60;13.10;;;2.90;99.90;;;;;;5076019;28;20222;-62
2024/02/29 06:03:43;;;;;;;21.23;13.57;;;2.90;99.90;;;;;;5077087;28;20659;-60
2024/02/29 06:06:10;;;;;;;17.80;11.98;;;2.90;99.90;;;;;;5077958;28;20212;-64
2024/02/29 06:08:37;;;;;;;20.33;13.38;;;3.00;99.90;;;;;;5076207;28;20739;-60
2024/02/29 06:11:04;;;;;;;17.48;12.45;;;3.00;99.90;;;;;;5075688;28;20205;-60
2024/02/29 06:13:32;;;;;;;20.15;11.60;;;3.00;99.90;;;;;;5075933;28;20674;-60
2024/02/29 06:16:02;;;;;;;19.15;12.38;;;3.10;99.90;;;;;;5074958;28;20216;-61
2024/02/29 06:18:29;;;;;;;18.95;13.15;;;3.10;99.90;;;;;;5075112;28;20297;-61
2024/02/29 06:20:55;;;;;;;17.55;12.05;;;3.10;99.90;;;;;;5075540;28;20201;-61
2024/02/29 06:23:22;;;;;;;19.30;13.18;;;3.10;99.90;;;;;;5074644;28;20203;-60
2024/02/29 06:25:50;;;;;;;18.13;11.32;;;3.20;99.90;;;;;;5075304;28;20201;-61
2024/02/29 06:28:17;;;;;;;18.15;11.27;;;3.20;99.90;;;;;;5074722;28;20202;-60
2024/02/29 06:30:45;;;;;;;19.33;11.85;;;3.20;99.90;;;;;;5074501;28;20620;-61
2024/02/29 06:33:12;;;;;;;19.38;12.25;;;3.30;99.90;;;;;;5074579;28;20230;-59
2024/02/29 06:35:38;;;;;;;17.52;12.30;;;3.30;99.90;;;;;;5073580;28;20212;-60
2024/02/29 06:38:05;;;;;;;19.95;12.55;;;3.40;99.90;;;;;;5074866;28;20204;-60
2024/02/29 06:40:32;;;;;;;18.40;11.75;;;3.50;99.90;;;;;;5074662;28;20197;-61
2024/02/29 06:42:59;;;;;;;18.88;11.45;;;3.60;99.90;;;;;;5075255;28;20221;-61
2024/02/29 06:45:26;;;;;;;16.20;12.02;;;3.60;99.90;;;;;;5075410;28;20254;-60
2024/02/29 06:47:54;;;;;;;17.55;12.15;;;3.70;99.90;;;;;;5076011;28;20201;-61
2024/02/29 06:50:21;;;;;;;19.42;11.23;;;3.80;99.90;;;;;;5074788;28;20623;-60
2024/02/29 06:52:47;;;;;;;18.58;12.68;;;3.80;99.90;;;;;;5074444;28;20716;-59
2024/02/29 06:55:14;;;;;;;17.17;11.25;;;3.90;99.90;;;;;;5074343;28;20201;-60
2024/02/29 06:57:42;;;;;;;18.85;13.38;;;4.00;99.90;;;;;;5074963;28;20200;-59
2024/02/29 07:00:10;;;;;;;17.25;10.95;;;4.10;99.90;;;;;;5074834;28;20325;-60
2024/02/29 07:02:38;;;;;;;18.02;11.90;;;4.10;99.90;;;;;;5074738;28;20605;-60
2024/02/29 07:05:08;;;;;;;17.70;11.35;;;4.20;99.90;;;;;;5073948;28;20205;-61
2024/02/29 07:07:35;;;;;;;14.23;11.10;;;4.30;99.90;;;;;;5074394;28;20186;-59
2024/02/29 07:10:05;;;;;;;20.38;12.07;;;4.40;99.90;;;;;;5074281;28;20201;-60
2024/02/29 07:12:31;;;;;;;15.43;10.80;;;4.50;99.90;;;;;;5073511;28;20318;-60
2024/02/29 07:14:58;;;;;;;16.67;10.48;;;4.60;99.90;;;;;;5075270;28;20202;-59
2024/02/29 07:17:25;;;;;;;15.93;11.35;;;4.60;99.90;;;;;;5074466;28;20205;-61
2024/02/29 07:19:52;;;;;;;18.08;11.10;;;4.70;99.90;;;;;;5073755;28;20254;-61
2024/02/29 07:22:20;;;;;;;18.45;13.38;;;4.90;99.90;;;;;;5073952;28;20221;-60
2024/02/29 07:24:46;;;;;;;22.10;11.35;;;5.00;99.90;;;;;;5073620;28;20211;-61
2024/02/29 07:27:15;;;;;;;15.13;11.68;;;5.10;99.90;;;;;;5073397;28;20694;-62
2024/02/29 07:29:41;;;;;;;15.35;10.18;;;5.30;99.90;;;;;;5074199;28;20202;-61
2024/02/29 07:32:08;;;;;;;21.80;11.90;;;5.50;99.90;;;;;;5074370;28;20781;-62
2024/02/29 07:34:35;;;;;;;15.63;11.10;;;5.60;99.90;;;;;;5074480;28;20209;-61
2024/02/29 07:37:02;;;;;;;16.02;10.55;;;5.70;99.90;;;;;;5075867;28;20202;-60
2024/02/29 07:39:30;;;;;;;17.55;11.75;;;5.80;99.90;;;;;;5074134;28;20686;-60
2024/02/29 07:41:57;;;;;;;16.48;11.68;;;5.90;99.90;;;;;;5074291;28;20734;-61
2024/02/29 07:44:25;;;;;;;22.77;14.60;;;5.90;99.90;;;;;;5074220;28;20232;-62
2024/02/29 07:46:51;;;;;;;23.17;13.02;;;5.90;99.90;;;;;;5074975;28;20209;-60
2024/02/29 07:49:18;;;;;;;17.00;12.40;;;6.00;99.90;;;;;;5075642;28;20241;-61
2024/02/29 07:51:45;;;;;;;16.70;11.35;;;6.10;99.90;;;;;;5074266;28;20723;-61
2024/02/29 07:54:11;;;;;;;17.45;10.95;;;6.20;99.90;;;;;;5075379;28;20223;-61
2024/02/29 07:56:42;;;;;;;18.40;12.65;;;6.30;99.90;;;;;;5078671;28;20213;-62
2024/02/29 07:59:09;;;;;;;16.40;12.15;;;6.50;99.90;;;;;;5078718;28;20189;-62
2024/02/29 08:01:36;;;;;;;21.27;12.52;;;6.60;99.90;;;;;;5080455;28;20257;-61
2024/02/29 08:04:03;;;;;;;17.20;11.93;;;6.70;99.90;;;;;;5080345;28;20209;-59
2024/02/29 08:06:30;;;;;;;17.77;12.30;;;6.70;99.90;;;;;;5080783;28;20203;-61
2024/02/29 08:08:56;;;;;;;17.08;12.35;;;6.80;99.90;;;;;;5078815;28;20207;-61
2024/02/29 08:11:25;;;;;;;16.73;11.98;;;6.80;99.90;;;;;;5079207;28;20236;-60
2024/02/29 08:13:55;;;;;;;18.35;12.38;;;6.90;99.90;;;;;;5078130;28;20238;-61
2024/02/29 08:16:22;;;;;;;16.50;12.20;;;7.00;99.90;;;;;;5077372;28;20271;-60
2024/02/29 08:18:48;;;;;;;16.52;13.15;;;7.00;99.90;;;;;;5076536;28;20204;-61
2024/02/29 08:21:15;;;;;;;17.27;12.23;;;7.10;99.90;;;;;;5077560;28;20230;-60
2024/02/29 08:23:42;;;;;;;17.80;12.82;;;7.10;99.90;;;;;;5076519;28;20210;-60
2024/02/29 08:26:09;;;;;;;18.33;11.90;;;7.10;99.90;;;;;;5079571;28;20214;-61
2024/02/29 08:28:37;;;;;;;14.32;11.15;;;7.20;99.90;;;;;;5078089;28;20203;-61
2024/02/29 08:31:05;;;;;;;16.13;11.55;;;7.20;99.90;;;;;;5078817;28;20201;-60
2024/02/29 08:33:32;;;;;;;18.75;12.30;;;7.30;99.90;;;;;;5079169;28;20274;-61
2024/02/29 08:35:59;;;;;;;17.15;11.63;;;7.40;99.90;;;;;;5077579;28;20204;-60
2024/02/29 08:38:26;;;;;;;18.08;12.55;;;7.40;99.90;;;;;;5077707;28;20197;-60
2024/02/29 08:40:52;;;;;;;18.45;12.88;;;7.50;99.90;;;;;;5076238;28;20580;-62
2024/02/29 08:43:20;;;;;;;15.43;11.48;;;7.50;99.90;;;;;;5076776;28;20203;-62
2024/02/29 08:45:46;;;;;;;16.58;11.25;;;7.60;99.90;;;;;;5078636;28;20729;-61
2024/02/29 08:48:14;;;;;;;17.63;12.73;;;7.60;99.90;;;;;;5080002;28;20204;-61
2024/02/29 08:50:41;;;;;;;17.80;12.00;;;7.70;99.90;;;;;;5079862;28;20204;-62
2024/02/29 08:53:08;;;;;;;15.15;11.57;;;7.70;99.90;;;;;;5079075;28;20740;-61
2024/02/29 08:55:34;;;;;;;17.45;12.13;;;7.70;99.90;;;;;;5078460;28;20233;-62
2024/02/29 08:58:01;;;;;;;16.73;12.57;;;7.80;99.90;;;;;;5079390;28;20713;-60
2024/02/29 09:00:28;;;;;;;17.95;12.55;;;7.90;99.90;;;;;;5082408;28;20212;-61
2024/02/29 09:02:55;;;;;;;17.17;11.55;;;7.90;99.60;;;;;;5077484;28;20219;-61
2024/02/29 09:05:23;;;;;;;18.65;12.43;;;7.90;99.30;;;;;;5077076;28;20211;-61
2024/02/29 09:07:50;;;;;;;20.95;12.85;;;8.00;99.00;;;;;;5077622;28;20201;-60
2024/02/29 09:10:17;;;;;;;15.15;11.60;;;8.10;99.00;;;;;;5077478;28;20211;-61
2024/02/29 09:12:44;;;;;;;15.70;11.30;;;8.20;98.50;;;;;;5076655;28;20241;-62
2024/02/29 09:15:11;;;;;;;18.50;12.20;;;8.20;98.10;;;;;;5076646;28;20208;-62
2024/02/29 09:17:37;;;;;;;18.92;13.32;;;8.30;97.90;;;;;;5077157;28;20212;-61
2024/02/29 09:20:06;;;;;;;20.48;11.73;;;8.30;97.50;;;;;;5076404;28;20204;-60
2024/02/29 09:22:35;;;;;;;18.25;12.30;;;8.40;97.40;;;;;;5077075;28;20220;-61
2024/02/29 09:25:03;;;;;;;18.42;12.55;;;8.50;97.10;;;;;;5076462;28;20306;-61
2024/02/29 09:27:29;;;;;;;19.10;12.52;;;8.50;96.90;;;;;;5076401;28;20205;-60
2024/02/29 09:29:56;;;;;;;18.80;13.50;;;8.50;96.80;;;;;;5077183;28;20642;-61
2024/02/29 09:32:23;;;;;;;19.52;12.10;;;8.60;96.60;;;;;;5076270;28;20233;-61
2024/02/29 09:34:49;;;;;;;22.33;13.38;;;8.60;96.40;;;;;;5075778;28;20225;-61
2024/02/29 09:37:16;;;;;;;16.33;12.50;;;8.70;96.30;;;;;;5076158;28;20211;-61
2024/02/29 09:39:44;;;;;;;15.65;11.50;;;8.80;96.20;;;;;;5076498;28;20212;-61
2024/02/29 09:42:11;;;;;;;19.98;13.45;;;8.90;96.10;;;;;;5075786;28;20218;-61
2024/02/29 09:44:40;;;;;;;21.55;13.73;;;9.00;95.90;;;;;;5076018;28;20201;-61
2024/02/29 09:47:08;;;;;;;17.30;13.23;;;9.10;95.60;;;;;;5075607;28;20575;-61
2024/02/29 09:49:35;;;;;;;19.75;13.05;;;9.20;95.10;;;;;;5075921;28;20440;-61
2024/02/29 09:52:02;;;;;;;18.10;12.50;;;9.30;95.00;;;;;;5076198;28;20222;-61
2024/02/29 09:54:33;;;;;;;20.05;13.27;;;9.30;94.60;;;;;;5078160;28;20479;-61
2024/02/29 09:57:01;;;;;;;17.23;11.85;;;9.40;94.40;;;;;;5082724;28;20198;-62
2024/02/29 09:59:30;;;;;;;17.80;12.40;;;9.50;94.20;;;;;;5078160;28;20216;-62
2024/02/29 10:01:57;;;;;;;20.70;13.80;;;9.60;93.70;;;;;;5075156;28;20520;-61
2024/02/29 10:04:26;;;;;;;17.87;12.93;;;9.60;93.50;;;;;;5074973;28;20944;-61
2024/02/29 10:06:53;;;;;;;19.07;12.90;;;9.70;93.40;;;;;;5076121;28;20506;-61
2024/02/29 10:09:21;;;;;;;20.20;14.27;;;9.80;93.10;;;;;;5076843;28;20779;-61
2024/02/29 10:11:48;;;;;;;17.10;12.90;;;9.90;92.80;;;;;;5075436;28;20491;-61
2024/02/29 10:14:25;;;;;;;19.60;13.27;;;10.00;91.80;;;;;;5076718;28;20488;-61
2024/02/29 10:16:52;;;;;;;16.20;12.97;;;10.10;91.40;;;;;;5077718;28;20422;-61
2024/02/29 10:19:19;;;;;;;16.37;11.63;;;10.20;91.10;;;;;;5077859;28;20915;-60
2024/02/29 10:21:46;;;;;;;18.73;12.70;;;10.30;90.70;;;;;;5076991;28;20511;-62
2024/02/29 10:24:13;;;;;;;17.70;12.30;;;10.30;90.30;;;;;;5077117;28;20446;-61
2024/02/29 10:26:40;;;;;;;16.00;12.67;;;10.30;90.00;;;;;;5076877;28;20437;-61
2024/02/29 10:29:10;;;;;;;17.87;12.77;;;10.40;89.60;;;;;;5075585;28;20786;-61
2024/02/29 10:31:38;;;;;;;14.80;12.27;;;10.50;89.10;;;;;;5076030;28;20471;-61
2024/02/29 10:34:05;;;;;;;18.90;14.07;;;10.50;88.00;;;;;;5079928;28;20477;-62
2024/02/29 10:36:32;;;;;;;16.83;12.57;;;10.60;87.40;;;;;;5079758;28;20796;-61
2024/02/29 10:38:59;;;;;;;16.47;12.93;;;10.70;87.00;;;;;;5075010;28;20449;-61
2024/02/29 10:41:31;;;;;;;16.77;12.03;;;10.70;86.30;;;;;;5076337;28;20469;-61
2024/02/29 10:44:02;;;;;;;16.67;11.60;;;10.70;85.30;;;;;;5074553;28;20888;-62
2024/02/29 10:46:29;;;;;;;17.80;11.80;;;10.70;84.70;;;;;;5074615;28;20434;-61
2024/02/29 10:49:03;;;;;;;15.73;12.17;;;10.70;84.40;;;;;;5074437;28;20506;-61
2024/02/29 10:51:43;;;;;;;18.27;12.73;;;10.70;84.40;;;;;;5075495;28;20525;-61
2024/02/29 10:54:18;;;;;;;15.47;10.97;;;10.80;84.20;;;;;;5079417;28;20487;-61
2024/02/29 10:56:46;;;;;;;14.07;10.60;;;10.90;83.80;;;;;;5080257;28;20435;-62
2024/02/29 10:59:16;;;;;;;18.27;13.30;;;11.00;83.40;;;;;;5075907;28;20469;-61
2024/02/29 11:01:43;;;;;;;16.73;12.17;;;11.10;82.50;;;;;;5074995;28;20474;-63
2024/02/29 11:04:11;;;;;;;19.47;13.30;;;11.10;81.80;;;;;;5074521;28;20983;-62
2024/02/29 11:06:42;;;;;;;16.90;11.83;;;11.20;81.40;;;;;;5074338;28;20443;-61
2024/02/29 11:09:10;;;;;;;14.20;11.50;;;11.30;80.80;;;;;;5074089;28;20469;-58
2024/02/29 11:11:38;;;;;;;18.47;12.00;;;11.30;80.10;;;;;;5073213;28;20863;-62
2024/02/29 11:14:08;;;;;;;16.17;11.23;;;11.40;79.50;;;;;;5072934;28;20486;-63
2024/02/29 11:16:39;;;;;;;15.30;12.50;;;11.30;79.70;;;;;;5073905;28;20443;-62
2024/02/29 11:19:07;;;;;;;16.73;12.10;;;11.30;79.20;;;;;;5073280;28;20445;-62
2024/02/29 11:21:35;;;;;;;15.73;11.93;;;11.40;79.00;;;;;;5072797;28;20503;-61
2024/02/29 11:24:03;;;;;;;15.27;11.10;;;11.40;78.40;;;;;;5073605;28;20445;-60
2024/02/29 11:26:32;;;;;;;14.87;11.07;;;11.50;77.90;;;;;;5073975;28;20503;-62
2024/02/29 11:28:59;;;;;;;17.33;12.87;;;11.50;77.20;;;;;;5074749;28;20592;-61
2024/02/29 11:31:26;;;;;;;14.53;10.40;;;11.50;76.60;;;;;;5074152;28;20475;-61
2024/02/29 11:33:55;;;;;;;16.83;12.30;;;11.50;76.60;;;;;;5074715;28;20483;-60
2024/02/29 11:36:24;;;;;;;15.53;11.37;;;11.60;76.70;;;;;;5073893;28;20447;-62
2024/02/29 11:38:52;;;;;;;15.67;11.00;;;11.60;76.50;;;;;;5073914;28;20445;-61
2024/02/29 11:41:20;;;;;;;14.43;10.27;;;11.60;76.20;;;;;;5073900;28;20468;-62
2024/02/29 11:43:49;;;;;;;14.17;9.90;;;11.60;75.60;;;;;;5074115;28;20461;-62
2024/02/29 11:46:15;;;;;;;14.30;10.90;;;11.70;75.50;;;;;;5073355;28;20477;-61
2024/02/29 11:48:42;;;;;;;14.87;10.63;;;11.80;75.30;;;;;;5074379;28;20435;-63
2024/02/29 11:51:09;;;;;;;15.30;11.00;;;11.80;74.90;;;;;;5075957;28;20463;-62
2024/02/29 11:53:36;;;;;;;15.13;12.20;;;11.90;74.70;;;;;;5080919;28;20852;-63
2024/02/29 11:56:05;;;;;;;13.90;10.20;;;11.90;74.20;;;;;;5079904;28;20457;-62
2024/02/29 11:58:33;;;;;;;10.87;9.37;;;11.90;73.50;;;;;;5080061;28;20439;-62
2024/02/29 12:01:01;;;;;;;12.87;10.00;;;11.90;73.00;;;;;;5083500;28;20466;-62
2024/02/29 12:03:28;;;;;;;12.57;9.40;;;11.90;72.50;;;;;;5080389;28;20447;-62
2024/02/29 12:05:56;;;;;;;14.27;9.20;;;11.80;72.70;;;;;;5081698;28;20895;-61
2024/02/29 12:08:26;;;;;;;11.60;9.10;;;11.90;72.80;;;;;;5076509;28;20529;-61
2024/02/29 12:10:53;;;;;;;11.70;10.13;;;12.00;72.50;;;;;;5074364;28;21009;-61
2024/02/29 12:13:22;;;;;;;10.73;9.13;;;12.20;72.10;;;;;;5074525;28;20924;-61
2024/02/29 12:15:49;;;;;;;13.50;9.43;;;12.20;71.10;;;;;;5073962;28;20444;-60
2024/02/29 12:18:16;;;;;;;14.43;9.87;;;12.10;70.70;;;;;;5073616;28;20446;-63
2024/02/29 12:20:43;;;;;;;13.33;10.27;;;12.10;70.60;;;;;;5075660;28;20442;-62
2024/02/29 12:23:14;;;;;;;13.30;9.40;;;12.10;70.30;;;;;;5074741;28;20466;-61
2024/02/29 12:25:42;;;;;;;13.33;10.77;;;12.20;70.00;;;;;;5074693;28;20847;-62
2024/02/29 12:28:09;;;;;;;10.80;9.43;;;12.20;70.00;;;;;;5074124;28;20929;-61
2024/02/29 12:30:37;;;;;;;11.67;9.53;;;12.30;69.80;;;;;;5073038;28;20785;-61
2024/02/29 12:33:05;;;;;;;12.43;9.47;;;12.30;69.00;;;;;;5074359;28;20465;-61
2024/02/29 12:35:33;;;;;;;11.80;9.30;;;12.30;68.80;;;;;;5077233;28;20948;-61
2024/02/29 12:38:01;;;;;;;12.80;9.47;;;12.30;68.60;;;;;;5076821;28;20442;-62
2024/02/29 12:40:30;;;;;;;12.80;10.33;;;12.20;68.50;;;;;;5076330;28;20479;-62